Flight Track Log - Related Links

Times and Time Zones

All times are in EST time to prevent confusion due to time zone crossing. See the EJA929 flight status page for this flight to view local times or setup timezone preferences in your user account.

Time Position Orientation Groundspeed Altitude Reporting Facility
EST Latitude Longitude Course Direction KTS MPH feet Rate Location/Type
Tue 02:34:19 PM 37.6383 -97.4281 225° Southwest 173 199 2,200  Level Kansas Center
Tue 02:35:08 PM 37.6047 -97.4703 225° Southwest 226 260 4,800 2,827 Climbing Kansas Center
Tue 02:36:03 PM 37.5833 -97.5447 250° West 262 302 7,100 2,557 Climbing Kansas Center
Tue 02:36:09 PM 37.5853 -97.5525 288° West 280 322 7,400 4,000 Climbing Kansas Center
Tue 02:37:03 PM 37.6411 -97.5786 340° North 249 287 11,100 3,652 Climbing Kansas Center
Tue 02:37:18 PM 37.6506 -97.5742 20° North 253 291 11,600 2,571 Climbing Kansas Center
Tue 02:38:06 PM 37.6983 -97.5547 18° North 249 287 13,800 1,872 Climbing Kansas Center
Tue 02:39:07 PM 37.7936 -97.5158 18° North 304 350 15,000 581 Climbing Kansas Center
Tue 02:40:10 PM 37.8756 -97.4842 17° North 305 351 15,000 47 Level Kansas Center
Tue 02:41:14 PM 37.9633 -97.4486 18° North 311 358 15,100 48 Climbing Kansas Center
Tue 02:42:14 PM 38.0519 -97.4139 17° North 321 369 15,100 -242 Level Kansas Center
Tue 02:43:18 PM 38.1417 -97.3772 18° North 323 372 14,600 -1,056 Descending Kansas Center
Tue 02:44:19 PM 38.2222 -97.3561 12° North 315 362 12,900 -1,869 Descending Kansas Center
Tue 02:45:20 PM 38.2336 -97.4436 279° West 268 308 10,800 -1,969 Descending Kansas Center
Tue 02:45:23 PM 38.2308 -97.4478 230° Southwest 264 304 10,800 -1,810 Level Kansas Center
Tue 02:46:23 PM 38.1597 -97.4722 195° South 289 333 8,900 -1,884 Descending Kansas Center
Tue 02:47:24 PM 38.0806 -97.4578 172° South 291 335 7,000 -1,916 Descending Kansas Center
Tue 02:48:22 PM 37.9958 -97.4311 166° South 291 335 5,100 -1,752 Descending Kansas Center
Tue 02:49:17 PM 37.9347 -97.4061 162° South 275 316 3,700 -1,034 Descending Kansas Center
Tue 02:50:18 PM 37.8711 -97.3789 161° South 234 269 3,100 -290 Descending Kansas Center
Tue 02:51:21 PM 37.8069 -97.3675 172° South 200 230 3,100  Level Kansas Center
Tue 02:52:22 PM 37.7553 -97.3756 187° South 181 208 3,100 -283 Level Kansas Center
Tue 02:53:28 PM 37.7128 -97.3928 198° South 126 145 2,500 -614 Descending Kansas Center
Tue 02:54:29 PM 37.6806 -97.4083 201° Southwest 119 137 1,800 -689 Descending Kansas Center
Tue 02:56:00 PM 37.6499 -97.4331 177° South  Level Estimated

Login

Don't have an account? Register now (free) for customized features, flight alerts, and more!